createdAt,value
2018-05-25T00:00:03.924Z,14.437
2018-05-25T00:01:04.524Z,14.5
2018-05-25T00:02:04.252Z,14.562
2018-05-25T00:03:04.285Z,14.562
2018-05-25T00:04:03.969Z,14.625
2018-05-25T00:05:03.704Z,14.625
2018-05-25T00:06:05.320Z,14.687
2018-05-25T00:07:03.734Z,14.75
2018-05-25T00:08:04.122Z,14.812
2018-05-25T00:09:03.899Z,14.812
2018-05-25T00:10:03.571Z,14.812
2018-05-25T00:11:04.196Z,14.875
2018-05-25T00:12:03.842Z,14.937
2018-05-25T00:13:04.220Z,14.937
2018-05-25T00:14:03.912Z,14.937
2018-05-25T00:15:03.604Z,14.875
2018-05-25T00:16:04.230Z,14.875
2018-05-25T00:17:04.485Z,14.875
2018-05-25T00:18:04.107Z,14.875
2018-05-25T00:19:03.794Z,14.812
2018-05-25T00:20:03.439Z,14.812
2018-05-25T00:21:03.633Z,14.812
2018-05-25T00:22:04.123Z,14.812
2018-05-25T00:23:03.801Z,14.875
2018-05-25T00:24:04.303Z,14.937
2018-05-25T00:25:03.715Z,14.875
2018-05-25T00:26:04.189Z,14.937
2018-05-25T00:27:04.620Z,14.937
2018-05-25T00:28:03.799Z,15
2018-05-25T00:29:03.478Z,15
2018-05-25T00:30:04.280Z,15
2018-05-25T00:31:03.799Z,15
2018-05-25T00:32:03.523Z,14.937
2018-05-25T00:33:03.939Z,14.937
2018-05-25T00:34:03.943Z,14.875
2018-05-25T00:35:04.012Z,14.875
2018-05-25T00:36:03.631Z,14.937
2018-05-25T00:37:04.895Z,14.937
2018-05-25T00:38:03.937Z,14.875
2018-05-25T00:39:06.100Z,14.875
2018-05-25T00:40:04.146Z,14.875
2018-05-25T00:41:03.664Z,14.812
2018-05-25T00:42:03.378Z,14.812
2018-05-25T00:43:03.909Z,14.812
2018-05-25T00:44:03.308Z,14.812
2018-05-25T00:45:04.135Z,14.875
2018-05-25T00:46:03.736Z,14.937
2018-05-25T00:47:03.399Z,14.937
2018-05-25T00:48:03.877Z,14.937
2018-05-25T00:49:03.938Z,14.875
2018-05-25T00:50:03.472Z,15
2018-05-25T00:51:04.577Z,15
2018-05-25T00:52:03.902Z,15
2018-05-25T00:53:03.577Z,15
2018-05-25T00:54:04.276Z,15
2018-05-25T00:55:04.240Z,14.937
2018-05-25T00:56:03.997Z,14.937
2018-05-25T00:57:03.865Z,14.937
2018-05-25T00:58:03.597Z,14.937
2018-05-25T00:59:04.029Z,14.937
2018-05-25T01:00:04.227Z,15
2018-05-25T01:01:03.987Z,15
2018-05-25T01:02:03.490Z,15.062
2018-05-25T01:03:03.443Z,15
2018-05-25T01:04:04.030Z,15.062
2018-05-25T01:05:03.772Z,15.062
2018-05-25T01:06:03.412Z,15
2018-05-25T01:07:06.553Z,15
2018-05-25T01:08:03.491Z,14.937
2018-05-25T01:09:04.608Z,14.937
2018-05-25T01:10:04.334Z,15
2018-05-25T01:11:04.247Z,15
2018-05-25T01:12:03.802Z,15
2018-05-25T01:13:04.052Z,15
2018-05-25T01:14:03.445Z,15
2018-05-25T01:15:03.777Z,15
2018-05-25T01:16:03.755Z,14.937
2018-05-25T01:17:03.594Z,15
2018-05-25T01:18:04.357Z,14.937
2018-05-25T01:19:03.907Z,14.875
2018-05-25T01:20:03.443Z,14.875
2018-05-25T01:21:04.245Z,14.875
2018-05-25T01:22:03.707Z,14.875
2018-05-25T01:23:04.309Z,14.875
2018-05-25T01:24:03.867Z,14.812
2018-05-25T01:25:03.635Z,14.812
2018-05-25T01:26:04.090Z,14.812
2018-05-25T01:27:04.349Z,14.812
2018-05-25T01:28:03.534Z,14.812
2018-05-25T01:29:03.299Z,14.812
2018-05-25T01:30:04.377Z,14.812
2018-05-25T01:31:03.898Z,14.687
2018-05-25T01:32:03.442Z,14.75
2018-05-25T01:33:03.904Z,14.687
2018-05-25T01:34:03.479Z,14.625
2018-05-25T01:35:03.965Z,14.562
2018-05-25T01:36:04.149Z,14.562
2018-05-25T01:37:03.514Z,14.5
2018-05-25T01:38:04.165Z,14.437
2018-05-25T01:39:03.886Z,14.5
2018-05-25T01:40:03.884Z,14.5
2018-05-25T01:41:03.503Z,14.437
2018-05-25T01:42:03.942Z,14.437
2018-05-25T01:43:03.844Z,14.437
2018-05-25T01:44:04.180Z,14.437
2018-05-25T01:45:03.720Z,14.375
2018-05-25T01:46:04.252Z,14.375
2018-05-25T01:47:06.268Z,14.312
2018-05-25T01:48:03.837Z,14.375
2018-05-25T01:49:03.369Z,14.375
2018-05-25T01:50:03.694Z,14.375
2018-05-25T01:51:04.198Z,14.312
2018-05-25T01:52:03.478Z,14.312
2018-05-25T01:53:03.588Z,14.312
2018-05-25T01:54:03.509Z,14.25
2018-05-25T01:55:04.343Z,14.25
2018-05-25T01:56:03.899Z,14.25
2018-05-25T01:57:03.821Z,14.25
2018-05-25T01:58:04.409Z,14.187
2018-05-25T01:59:04.009Z,14.125
2018-05-25T02:00:03.732Z,14.125
2018-05-25T02:01:04.283Z,14.125
2018-05-25T02:02:03.806Z,14.125
2018-05-25T02:03:03.340Z,14.125
2018-05-25T02:04:04.066Z,14.125
2018-05-25T02:05:03.806Z,14.125
2018-05-25T02:06:03.469Z,14.062
2018-05-25T02:07:03.902Z,14
2018-05-25T02:08:03.804Z,14
2018-05-25T02:09:03.960Z,13.937
2018-05-25T02:10:04.155Z,13.875
2018-05-25T02:11:03.844Z,13.937
2018-05-25T02:12:03.777Z,13.875
2018-05-25T02:13:04.295Z,13.875
2018-05-25T02:14:03.388Z,13.812
2018-05-25T02:15:04.925Z,13.812
2018-05-25T02:16:04.275Z,13.75
2018-05-25T02:17:03.884Z,13.75
2018-05-25T02:18:03.857Z,13.75
2018-05-25T02:19:04.112Z,13.75
2018-05-25T02:20:03.867Z,13.812
2018-05-25T02:21:03.554Z,13.812
2018-05-25T02:22:04.264Z,13.75
2018-05-25T02:23:03.436Z,13.625
2018-05-25T02:24:04.136Z,13.687
2018-05-25T02:25:03.501Z,13.687
2018-05-25T02:26:04.397Z,13.625
2018-05-25T02:27:04.247Z,13.625
2018-05-25T02:28:03.481Z,13.562
2018-05-25T02:29:04.018Z,13.625
2018-05-25T02:30:03.547Z,13.625
2018-05-25T02:31:03.860Z,13.687
2018-05-25T02:32:03.662Z,13.687
2018-05-25T02:33:04.295Z,13.687
2018-05-25T02:34:03.719Z,13.687
2018-05-25T02:35:04.233Z,13.687
2018-05-25T02:36:03.717Z,13.687
2018-05-25T02:37:04.145Z,13.687
2018-05-25T02:38:04.180Z,13.687
2018-05-25T02:39:04.650Z,13.687
2018-05-25T02:40:04.307Z,13.687
2018-05-25T02:41:03.835Z,13.812
2018-05-25T02:42:04.177Z,13.75
2018-05-25T02:43:04.055Z,13.687
2018-05-25T02:44:04.065Z,13.687
2018-05-25T02:45:03.725Z,13.625
2018-05-25T02:46:03.963Z,13.625
2018-05-25T02:47:03.539Z,13.625
2018-05-25T02:48:04.305Z,13.562
2018-05-25T02:49:03.709Z,13.562
2018-05-25T02:50:04.267Z,13.562
2018-05-25T02:51:03.697Z,13.5
2018-05-25T02:52:04.647Z,13.5
2018-05-25T02:53:04.120Z,13.375
2018-05-25T02:54:03.576Z,13.312
2018-05-25T02:55:04.040Z,13.312
2018-05-25T02:56:03.745Z,13.375
2018-05-25T02:57:04.164Z,13.375
2018-05-25T02:58:04.020Z,13.437
2018-05-25T02:59:03.570Z,13.437
2018-05-25T03:00:04.293Z,13.437
2018-05-25T03:01:04.046Z,13.437
2018-05-25T03:02:03.475Z,13.375
2018-05-25T03:03:04.262Z,13.375
2018-05-25T03:04:03.760Z,13.375
2018-05-25T03:05:03.682Z,13.312
2018-05-25T03:06:04.792Z,13.312
2018-05-25T03:07:04.133Z,13.312
2018-05-25T03:08:03.630Z,13.312
2018-05-25T03:09:04.326Z,13.312
2018-05-25T03:10:03.572Z,13.312
2018-05-25T03:11:04.107Z,13.312
2018-05-25T03:12:03.608Z,13.312
2018-05-25T03:13:04.292Z,13.375
2018-05-25T03:14:03.886Z,13.437
2018-05-25T03:15:03.434Z,13.5
2018-05-25T03:16:04.118Z,13.625
2018-05-25T03:17:03.950Z,13.75
2018-05-25T03:18:03.921Z,13.875
2018-05-25T03:19:03.489Z,14
2018-05-25T03:20:04.558Z,14.125
2018-05-25T03:21:03.808Z,14.25
2018-05-25T03:22:03.357Z,14.437
2018-05-25T03:23:04.111Z,14.562
2018-05-25T03:24:03.823Z,14.687
2018-05-25T03:25:04.297Z,14.812
2018-05-25T03:26:03.947Z,14.937
2018-05-25T03:27:03.412Z,15.062
2018-05-25T03:28:03.564Z,15.187
2018-05-25T03:29:04.192Z,15.375
2018-05-25T03:30:03.552Z,15.5
2018-05-25T03:31:04.257Z,15.687
2018-05-25T03:32:04.218Z,15.812
2018-05-25T03:33:03.904Z,16
2018-05-25T03:34:03.619Z,16.125
2018-05-25T03:35:04.273Z,16.312
2018-05-25T03:36:03.951Z,16.437
2018-05-25T03:37:03.563Z,16.625
2018-05-25T03:38:04.032Z,16.812
2018-05-25T03:39:03.748Z,16.937
2018-05-25T03:40:04.176Z,17
2018-05-25T03:41:03.734Z,17.187
2018-05-25T03:42:03.522Z,17.25
2018-05-25T03:43:04.084Z,17.312
2018-05-25T03:44:03.785Z,17.375
2018-05-25T03:45:05.461Z,17.5
2018-05-25T03:46:03.866Z,17.625
2018-05-25T03:47:04.163Z,17.75
2018-05-25T03:48:03.722Z,17.937
2018-05-25T03:49:03.271Z,18
2018-05-25T03:50:04.020Z,18.062
2018-05-25T03:51:04.043Z,18.187
2018-05-25T03:52:04.153Z,18.187
2018-05-25T03:53:03.609Z,18.125
2018-05-25T03:54:03.657Z,18.25
2018-05-25T03:55:04.119Z,18.375
2018-05-25T03:56:03.726Z,18.5
2018-05-25T03:57:03.677Z,18.687
2018-05-25T03:58:04.153Z,18.812
2018-05-25T03:59:03.931Z,18.812
2018-05-25T04:00:03.473Z,18.875
2018-05-25T04:01:03.475Z,18.875
2018-05-25T04:02:03.694Z,18.937
2018-05-25T04:03:03.988Z,19.062
2018-05-25T04:04:03.572Z,19.187
2018-05-25T04:05:04.182Z,19.312
2018-05-25T04:06:03.645Z,19.375
2018-05-25T04:07:04.142Z,19.5
2018-05-25T04:08:03.919Z,19.5
2018-05-25T04:09:04.028Z,19.562
2018-05-25T04:10:03.859Z,19.5
2018-05-25T04:11:04.261Z,19.562
2018-05-25T04:12:03.831Z,19.625
2018-05-25T04:13:03.595Z,19.687
2018-05-25T04:14:04.319Z,19.75
2018-05-25T04:15:03.833Z,19.937
2018-05-25T04:16:04.169Z,20.062
2018-05-25T04:17:03.903Z,20.062
2018-05-25T04:18:04.167Z,20.062
2018-05-25T04:19:04.548Z,20.062
2018-05-25T04:20:04.209Z,20.062
2018-05-25T04:21:03.470Z,20.125
2018-05-25T04:22:04.097Z,20.187
2018-05-25T04:23:03.351Z,20.312
2018-05-25T04:24:03.920Z,20.312
2018-05-25T04:25:04.111Z,20.375
2018-05-25T04:26:03.660Z,20.375
2018-05-25T04:27:04.288Z,20.437
2018-05-25T04:28:04.330Z,20.5
2018-05-25T04:29:03.916Z,20.5
2018-05-25T04:30:03.728Z,20.5
2018-05-25T04:31:03.974Z,20.5
2018-05-25T04:32:03.758Z,20.5
2018-05-25T04:33:04.248Z,20.625
2018-05-25T04:34:03.904Z,20.625
2018-05-25T04:35:03.382Z,20.75
2018-05-25T04:36:03.824Z,20.937
2018-05-25T04:37:03.529Z,21.062
2018-05-25T04:38:04.421Z,21.062
2018-05-25T04:39:04.390Z,21
2018-05-25T04:40:03.823Z,21
2018-05-25T04:41:03.705Z,21.125
2018-05-25T04:42:04.301Z,21.187
2018-05-25T04:43:04.803Z,21.375
2018-05-25T04:44:03.840Z,21.437
2018-05-25T04:45:03.522Z,21.5
2018-05-25T04:46:04.070Z,21.687
2018-05-25T04:47:03.810Z,21.687
2018-05-25T04:48:04.147Z,21.75
2018-05-25T04:49:03.885Z,21.812
2018-05-25T04:50:04.075Z,21.812
2018-05-25T04:51:04.055Z,21.75
2018-05-25T04:52:04.016Z,21.812
2018-05-25T04:53:03.761Z,21.812
2018-05-25T04:54:05.020Z,21.875
2018-05-25T04:55:04.044Z,21.937
2018-05-25T04:56:03.719Z,22.187
2018-05-25T04:57:03.551Z,22.375
2018-05-25T04:58:04.309Z,22.375
2018-05-25T04:59:03.816Z,22.312
2018-05-25T05:00:04.415Z,22.312
2018-05-25T05:01:04.302Z,22.375
2018-05-25T05:02:03.829Z,22.75
2018-05-25T05:03:04.338Z,22.812
2018-05-25T05:04:03.733Z,22.875
2018-05-25T05:05:03.488Z,22.75
2018-05-25T05:06:03.442Z,22.625
2018-05-25T05:07:03.681Z,22.562
2018-05-25T05:08:03.516Z,22.562
2018-05-25T05:09:04.091Z,22.625
2018-05-25T05:10:03.797Z,22.812
2018-05-25T05:11:03.583Z,23
2018-05-25T05:12:04.277Z,23.187
2018-05-25T05:13:03.711Z,23.125
2018-05-25T05:14:03.509Z,23.125
2018-05-25T05:15:04.145Z,23.25
2018-05-25T05:16:03.648Z,23.5
2018-05-25T05:17:03.521Z,23.437
2018-05-25T05:18:03.936Z,23.562
2018-05-25T05:19:03.566Z,23.625
2018-05-25T05:20:04.131Z,23.687
2018-05-25T05:21:03.403Z,23.812
2018-05-25T05:22:03.901Z,23.875
2018-05-25T05:23:03.505Z,23.75
2018-05-25T05:24:04.213Z,23.687
2018-05-25T05:25:03.878Z,23.812
2018-05-25T05:26:04.310Z,23.812
2018-05-25T05:27:04.227Z,24
2018-05-25T05:28:04.191Z,24.125
2018-05-25T05:29:03.789Z,24.125
2018-05-25T05:30:04.450Z,24.187
2018-05-25T05:31:03.998Z,24.25
2018-05-25T05:32:04.390Z,24.125
2018-05-25T05:33:04.167Z,24.125
2018-05-25T05:34:03.625Z,24.125
2018-05-25T05:35:04.324Z,24.062
2018-05-25T05:36:03.885Z,24.125
2018-05-25T05:37:03.256Z,24.437
2018-05-25T05:38:03.927Z,24.562
2018-05-25T05:39:03.841Z,24.687
2018-05-25T05:40:04.123Z,24.625
2018-05-25T05:41:04.433Z,24.5
2018-05-25T05:42:03.523Z,24.5
2018-05-25T05:43:03.867Z,24.562
2018-05-25T05:44:03.432Z,24.312
2018-05-25T05:45:04.141Z,24.125
2018-05-25T05:46:04.265Z,23.812
2018-05-25T05:47:03.596Z,23.75
2018-05-25T05:48:04.156Z,23.875
2018-05-25T05:49:03.665Z,23.937
2018-05-25T05:50:04.137Z,24
2018-05-25T05:51:03.408Z,24
2018-05-25T05:52:04.022Z,23.875
2018-05-25T05:53:03.460Z,23.812
2018-05-25T05:54:03.987Z,23.75
2018-05-25T05:55:03.572Z,23.75
2018-05-25T05:56:03.966Z,23.562
2018-05-25T05:57:03.739Z,23.687
2018-05-25T05:58:03.962Z,23.812
2018-05-25T05:59:03.520Z,23.812
2018-05-25T06:00:04.407Z,23.937
2018-05-25T06:01:04.230Z,24.25
2018-05-25T06:02:03.681Z,24.437
2018-05-25T06:03:04.217Z,24.562
2018-05-25T06:04:03.834Z,24.75
2018-05-25T06:05:04.283Z,24.687
2018-05-25T06:06:03.707Z,24.937
2018-05-25T06:07:04.116Z,25.125
2018-05-25T06:08:03.711Z,25.062
2018-05-25T06:09:03.861Z,24.875
2018-05-25T06:10:03.606Z,24.812
2018-05-25T06:11:04.260Z,24.875
2018-05-25T06:12:03.809Z,25
2018-05-25T06:13:03.985Z,25.062
2018-05-25T06:14:04.280Z,25.312
2018-05-25T06:15:04.076Z,25.437
2018-05-25T06:16:03.494Z,25.625
2018-05-25T06:17:04.222Z,25.812
2018-05-25T06:18:03.726Z,25.75
2018-05-25T06:19:03.497Z,25.625
2018-05-25T06:20:04.250Z,25.625
2018-05-25T06:21:05.169Z,25.625
2018-05-25T06:22:03.390Z,25.812
2018-05-25T06:23:04.220Z,25.937
2018-05-25T06:24:03.847Z,26.187
2018-05-25T06:25:03.564Z,26.312
2018-05-25T06:26:05.148Z,26.625
2018-05-25T06:27:03.462Z,26.812
2018-05-25T06:28:04.004Z,26.937
2018-05-25T06:29:03.559Z,26.875
2018-05-25T06:30:04.361Z,26.875
2018-05-25T06:31:03.769Z,26.75
2018-05-25T06:32:04.277Z,26.812
2018-05-25T06:33:03.474Z,27
2018-05-25T06:34:03.951Z,26.812
2018-05-25T06:35:03.996Z,26.75
2018-05-25T06:36:03.301Z,26.75
2018-05-25T06:37:03.817Z,26.812
2018-05-25T06:38:04.245Z,26.75
2018-05-25T06:39:03.998Z,26.5
2018-05-25T06:40:03.654Z,26.312
2018-05-25T06:41:03.589Z,26.312
2018-05-25T06:42:03.967Z,26.437
2018-05-25T06:43:03.604Z,26.5
2018-05-25T06:44:04.204Z,26.625
2018-05-25T06:45:03.885Z,26.5
2018-05-25T06:46:03.310Z,26.562
2018-05-25T06:47:04.492Z,26.562
2018-05-25T06:48:03.909Z,26.562
2018-05-25T06:49:04.396Z,26.5
2018-05-25T06:50:03.909Z,26.5
2018-05-25T06:51:03.508Z,26.625
2018-05-25T06:52:04.065Z,26.687
2018-05-25T06:53:04.210Z,26.812
2018-05-25T06:54:04.021Z,27
2018-05-25T06:55:03.553Z,26.875
2018-05-25T06:56:04.023Z,26.937
2018-05-25T06:57:03.750Z,26.875
2018-05-25T06:58:03.736Z,26.687
2018-05-25T06:59:04.625Z,26.5
2018-05-25T07:00:04.073Z,26.5
2018-05-25T07:01:03.593Z,26.437
2018-05-25T07:02:03.734Z,26.437
2018-05-25T07:03:03.883Z,26.312
2018-05-25T07:04:03.761Z,26.312
2018-05-25T07:05:04.417Z,26.437
2018-05-25T07:06:03.834Z,26.562
2018-05-25T07:07:03.591Z,26.937
2018-05-25T07:08:03.494Z,27.312
2018-05-25T07:09:04.224Z,27.437
2018-05-25T07:10:04.692Z,27.562
2018-05-25T07:11:04.188Z,27.687
2018-05-25T07:12:04.262Z,27.812
2018-05-25T07:13:04.089Z,28
2018-05-25T07:14:03.694Z,28.187
2018-05-25T07:15:04.224Z,28.312
2018-05-25T07:16:03.923Z,28.375
2018-05-25T07:17:04.463Z,28.25
2018-05-25T07:18:03.898Z,28.312
2018-05-25T07:19:03.550Z,28.312
2018-05-25T07:20:05.076Z,28.187
2018-05-25T07:21:03.626Z,28.125
2018-05-25T07:22:03.949Z,28.125
2018-05-25T07:23:03.322Z,28.312
2018-05-25T07:24:03.842Z,28.437
2018-05-25T07:25:03.426Z,28.75
2018-05-25T07:26:03.701Z,28.75
2018-05-25T07:27:03.379Z,28.625
2018-05-25T07:28:03.895Z,28.687
2018-05-25T07:29:03.613Z,28.687
2018-05-25T07:30:04.876Z,28.75
2018-05-25T07:31:04.105Z,28.562
2018-05-25T07:32:03.765Z,28.562
2018-05-25T07:33:03.859Z,28.562
2018-05-25T07:34:03.733Z,28.375
2018-05-25T07:35:04.274Z,28.062
2018-05-25T07:36:03.690Z,27.875
2018-05-25T07:37:04.319Z,27.875
2018-05-25T07:38:03.521Z,27.875
2018-05-25T07:39:04.612Z,27.812
2018-05-25T07:40:03.751Z,27.937
2018-05-25T07:41:04.351Z,28.125
2018-05-25T07:42:03.866Z,28.125
2018-05-25T07:43:03.503Z,27.937
2018-05-25T07:44:04.172Z,27.937
2018-05-25T07:45:03.780Z,27.937
2018-05-25T07:46:04.344Z,28.125
2018-05-25T07:47:04.582Z,28.312
2018-05-25T07:48:03.879Z,28.5
2018-05-25T07:49:03.567Z,28.375
2018-05-25T07:50:04.009Z,28.312
2018-05-25T07:51:03.766Z,28.25
2018-05-25T07:52:03.344Z,28.062
2018-05-25T07:53:03.506Z,27.937
2018-05-25T07:54:04.327Z,27.875
2018-05-25T07:55:03.746Z,27.937
2018-05-25T07:56:05.257Z,28
2018-05-25T07:57:03.784Z,28.187
2018-05-25T07:58:04.485Z,28.312
2018-05-25T07:59:04.238Z,28.375
2018-05-25T08:00:04.308Z,28.312
2018-05-25T08:01:03.849Z,28.187
2018-05-25T08:02:03.636Z,28.062
2018-05-25T08:03:03.613Z,28
2018-05-25T08:04:04.015Z,28
2018-05-25T08:05:04.680Z,28
2018-05-25T08:06:04.277Z,28.062
2018-05-25T08:07:03.924Z,28.25
2018-05-25T08:08:03.889Z,28.375
2018-05-25T08:09:03.794Z,28.312
2018-05-25T08:10:04.280Z,28.437
2018-05-25T08:11:03.905Z,28.062
2018-05-25T08:12:03.726Z,27.75
2018-05-25T08:13:04.424Z,27.687
2018-05-25T08:14:04.079Z,27.937
2018-05-25T08:15:03.725Z,28.062
2018-05-25T08:16:04.207Z,28.25
2018-05-25T08:17:03.805Z,28.312
2018-05-25T08:18:04.292Z,28.312
2018-05-25T08:19:04.043Z,28.5
2018-05-25T08:20:03.911Z,28.75
2018-05-25T08:21:04.242Z,28.875
2018-05-25T08:22:04.037Z,28.937
2018-05-25T08:23:04.072Z,28.875
2018-05-25T08:24:03.802Z,28.812
2018-05-25T08:25:04.021Z,28.937
2018-05-25T08:26:03.352Z,28.937
2018-05-25T08:27:03.902Z,28.875
2018-05-25T08:28:03.503Z,28.75
2018-05-25T08:29:03.953Z,28.75
2018-05-25T08:30:03.517Z,28.875
2018-05-25T08:31:04.188Z,29
2018-05-25T08:32:03.801Z,28.937
2018-05-25T08:33:03.591Z,28.75
2018-05-25T08:34:03.352Z,28.625
2018-05-25T08:35:03.957Z,28.437
2018-05-25T08:36:04.003Z,28.5
2018-05-25T08:37:03.410Z,28.687
2018-05-25T08:38:04.110Z,29
2018-05-25T08:39:03.934Z,29.125
2018-05-25T08:40:03.614Z,29.187
2018-05-25T08:41:03.756Z,29.187
2018-05-25T08:42:03.328Z,29.25
2018-05-25T08:43:03.549Z,29.375
2018-05-25T08:44:04.029Z,29.437
2018-05-25T08:45:03.713Z,29.312
2018-05-25T08:46:04.012Z,29.375
2018-05-25T08:47:03.528Z,29.187
2018-05-25T08:48:03.798Z,28.812
2018-05-25T08:49:03.373Z,28.625
2018-05-25T08:50:03.852Z,28.812
2018-05-25T08:51:03.400Z,28.812
2018-05-25T08:52:03.876Z,29
2018-05-25T08:53:03.614Z,29.062
2018-05-25T08:54:07.910Z,29.125
2018-05-25T08:55:03.729Z,29.187
2018-05-25T08:56:03.603Z,29.375
2018-05-25T08:57:04.664Z,29.312
2018-05-25T08:58:03.949Z,29.187
2018-05-25T08:59:03.782Z,29.062
2018-05-25T09:00:04.266Z,28.75
2018-05-25T09:01:03.872Z,28.687
2018-05-25T09:02:03.318Z,28.562
2018-05-25T09:03:04.117Z,28.375
2018-05-25T09:04:03.680Z,28.187
2018-05-25T09:05:04.237Z,28.312
2018-05-25T09:06:03.622Z,28.5
2018-05-25T09:07:04.068Z,28.75
2018-05-25T09:08:03.508Z,28.875
2018-05-25T09:09:04.388Z,28.937
2018-05-25T09:10:03.783Z,28.875
2018-05-25T09:11:04.313Z,28.75
2018-05-25T09:12:06.237Z,28.625
2018-05-25T09:13:03.344Z,28.625
2018-05-25T09:14:03.868Z,28.562
2018-05-25T09:15:04.284Z,28.812
2018-05-25T09:16:04.940Z,29.125
2018-05-25T09:17:04.199Z,29.187
2018-05-25T09:18:03.769Z,29.312
2018-05-25T09:19:04.397Z,29.312
2018-05-25T09:20:03.797Z,29.25
2018-05-25T09:21:03.380Z,29.375
2018-05-25T09:22:03.867Z,29.375
2018-05-25T09:23:03.664Z,29.312
2018-05-25T09:24:04.305Z,29.375
2018-05-25T09:25:03.873Z,29.312
2018-05-25T09:26:04.278Z,29.437
2018-05-25T09:27:03.835Z,29.562
2018-05-25T09:28:03.342Z,29.625
2018-05-25T09:29:03.972Z,29.5
2018-05-25T09:30:03.665Z,29.375
2018-05-25T09:31:03.382Z,29.25
2018-05-25T09:32:03.738Z,29
2018-05-25T09:33:03.861Z,28.562
2018-05-25T09:34:03.350Z,28.187
2018-05-25T09:35:04.114Z,28
2018-05-25T09:36:03.610Z,27.937
2018-05-25T09:37:04.098Z,28.187
2018-05-25T09:38:04.093Z,28.562
2018-05-25T09:39:04.162Z,28.75
2018-05-25T09:40:03.690Z,28.562
2018-05-25T09:41:04.211Z,28.5
2018-05-25T09:42:03.938Z,28.562
2018-05-25T09:43:04.236Z,28.625
2018-05-25T09:44:03.714Z,28.687
2018-05-25T09:45:04.285Z,28.687
2018-05-25T09:46:03.935Z,28.687
2018-05-25T09:47:03.640Z,28.5
2018-05-25T09:48:03.875Z,28.562
2018-05-25T09:49:03.652Z,28.75
2018-05-25T09:50:04.839Z,28.812
2018-05-25T09:51:03.999Z,28.75
2018-05-25T09:52:03.620Z,28.625
2018-05-25T09:53:03.557Z,28.75
2018-05-25T09:54:04.042Z,28.937
2018-05-25T09:55:03.651Z,29.187
2018-05-25T09:56:04.093Z,29.312
2018-05-25T09:57:03.580Z,29.437
2018-05-25T09:58:03.663Z,29.437
2018-05-25T09:59:04.117Z,29.312
2018-05-25T10:00:03.858Z,29.187
2018-05-25T10:01:03.548Z,28.937
2018-05-25T10:02:04.461Z,29
2018-05-25T10:03:03.897Z,29.125
2018-05-25T10:04:03.557Z,29.062
2018-05-25T10:05:04.368Z,28.937
2018-05-25T10:06:04.072Z,28.687
2018-05-25T10:07:03.619Z,28.437
2018-05-25T10:08:04.434Z,28.125
2018-05-25T10:09:04.291Z,28
2018-05-25T10:10:03.852Z,27.875
2018-05-25T10:11:04.226Z,27.687
2018-05-25T10:12:03.742Z,27.5
2018-05-25T10:13:03.348Z,27.312
2018-05-25T10:14:03.947Z,27.187
2018-05-25T10:15:03.357Z,27.25
2018-05-25T10:16:03.918Z,27.312
2018-05-25T10:17:03.572Z,27.375
2018-05-25T10:18:04.316Z,27.437
2018-05-25T10:19:05.044Z,27.187
2018-05-25T10:20:03.514Z,26.875
2018-05-25T10:21:04.111Z,26.562
2018-05-25T10:22:03.632Z,26.312
2018-05-25T10:23:04.235Z,26.187
2018-05-25T10:24:03.789Z,26.187
2018-05-25T10:25:04.255Z,26.375
2018-05-25T10:26:03.707Z,26.625
2018-05-25T10:27:04.258Z,26.875
2018-05-25T10:28:03.434Z,26.875
2018-05-25T10:29:03.913Z,26.875
2018-05-25T10:30:03.622Z,26.937
2018-05-25T10:31:04.377Z,26.937
2018-05-25T10:32:03.903Z,26.75
2018-05-25T10:33:03.939Z,26.75
2018-05-25T10:34:03.583Z,26.875
2018-05-25T10:35:04.177Z,27.062
2018-05-25T10:36:03.791Z,27.187
2018-05-25T10:37:03.710Z,27.437
2018-05-25T10:38:04.060Z,27.625
2018-05-25T10:39:03.979Z,27.687
2018-05-25T10:40:04.561Z,27.562
2018-05-25T10:41:03.767Z,27.437
2018-05-25T10:42:03.949Z,27.187
2018-05-25T10:43:03.960Z,26.812
2018-05-25T10:44:03.783Z,26.625
2018-05-25T10:45:03.628Z,26.625
2018-05-25T10:46:04.091Z,26.812
2018-05-25T10:47:03.751Z,26.937
2018-05-25T10:48:03.309Z,26.875
2018-05-25T10:49:03.896Z,26.937
2018-05-25T10:50:04.047Z,27.187
2018-05-25T10:51:03.629Z,27.312
2018-05-25T10:52:04.272Z,27.437
2018-05-25T10:53:03.729Z,27.75
2018-05-25T10:54:03.772Z,28.062
2018-05-25T10:55:04.327Z,28.312
2018-05-25T10:56:04.793Z,28.375
2018-05-25T10:57:04.115Z,28.312
2018-05-25T10:58:03.873Z,28.125
2018-05-25T10:59:03.299Z,28.062
2018-05-25T11:00:04.259Z,28.187
2018-05-25T11:01:04.277Z,28.375
2018-05-25T11:02:03.679Z,28.562
2018-05-25T11:03:04.228Z,28.687
2018-05-25T11:04:03.701Z,28.75
2018-05-25T11:05:04.199Z,28.875
2018-05-25T11:06:03.760Z,29.062
2018-05-25T11:07:03.588Z,29.125
2018-05-25T11:08:04.023Z,29.125
2018-05-25T11:09:04.045Z,29.125
2018-05-25T11:10:04.435Z,29.25
2018-05-25T11:11:03.820Z,29.25
2018-05-25T11:12:03.554Z,29
2018-05-25T11:13:04.056Z,28.75
2018-05-25T11:14:03.619Z,28.437
2018-05-25T11:15:04.261Z,28.187
2018-05-25T11:16:03.647Z,27.937
2018-05-25T11:17:04.571Z,27.875
2018-05-25T11:18:03.963Z,27.812
2018-05-25T11:19:03.520Z,27.687
2018-05-25T11:20:04.181Z,27.5
2018-05-25T11:21:04.261Z,27.312
2018-05-25T11:22:03.860Z,27
2018-05-25T11:23:04.367Z,26.687
2018-05-25T11:24:03.850Z,26.75
2018-05-25T11:25:03.646Z,26.875
2018-05-25T11:26:04.155Z,27.062
2018-05-25T11:27:03.938Z,27.25
2018-05-25T11:28:03.611Z,27.5
2018-05-25T11:29:03.863Z,27.562
2018-05-25T11:30:03.481Z,27.437
2018-05-25T11:31:04.088Z,27.375
2018-05-25T11:32:03.798Z,27.25
2018-05-25T11:33:04.419Z,27.187
2018-05-25T11:34:03.915Z,26.937
2018-05-25T11:35:03.323Z,26.875
2018-05-25T11:36:03.675Z,26.875
2018-05-25T11:37:04.228Z,26.687
2018-05-25T11:38:03.722Z,26.625
2018-05-25T11:39:04.179Z,26.625
2018-05-25T11:40:03.758Z,26.687
2018-05-25T11:41:03.789Z,26.875
2018-05-25T11:42:03.439Z,27.187
2018-05-25T11:43:03.849Z,27.437
2018-05-25T11:44:03.983Z,27.5
2018-05-25T11:45:03.756Z,27.625
2018-05-25T11:46:04.278Z,27.75
2018-05-25T11:47:03.985Z,27.812
2018-05-25T11:48:04.996Z,27.937
2018-05-25T11:49:04.144Z,27.75
2018-05-25T11:50:03.576Z,27.5
2018-05-25T11:51:04.124Z,27.437
2018-05-25T11:52:03.287Z,27.562
2018-05-25T11:53:03.879Z,27.562
2018-05-25T11:54:03.368Z,27.687
2018-05-25T11:55:03.993Z,27.812
2018-05-25T11:56:03.530Z,27.937
2018-05-25T11:57:04.010Z,28.125
2018-05-25T11:58:03.620Z,28.187
2018-05-25T11:59:03.799Z,28.187
2018-05-25T12:00:03.594Z,28.312
2018-05-25T12:01:04.371Z,28.312
2018-05-25T12:02:03.574Z,28.375
2018-05-25T12:03:04.463Z,28.312
2018-05-25T12:04:03.768Z,28.062
2018-05-25T12:05:04.361Z,28
2018-05-25T12:06:04.309Z,27.937
2018-05-25T12:07:03.492Z,27.875
2018-05-25T12:08:04.124Z,27.625
2018-05-25T12:09:04.040Z,27.687
2018-05-25T12:10:03.584Z,27.687
2018-05-25T12:11:03.833Z,27.687
2018-05-25T12:12:03.900Z,27.875
2018-05-25T12:13:03.886Z,27.937
2018-05-25T12:14:03.666Z,27.812
2018-05-25T12:15:03.595Z,27.75
2018-05-25T12:16:04.251Z,27.812
2018-05-25T12:17:03.701Z,27.875
2018-05-25T12:18:04.273Z,27.875
2018-05-25T12:19:03.872Z,27.937
2018-05-25T12:20:03.359Z,27.875
2018-05-25T12:21:03.661Z,27.812
2018-05-25T12:22:03.365Z,27.937
2018-05-25T12:23:03.973Z,28.125
2018-05-25T12:24:03.396Z,28.125
2018-05-25T12:25:03.607Z,28.312
2018-05-25T12:26:03.526Z,28.625
2018-05-25T12:27:04.026Z,28.812
2018-05-25T12:28:03.627Z,28.812
2018-05-25T12:29:03.758Z,28.75
2018-05-25T12:30:04.078Z,28.75
2018-05-25T12:31:04.417Z,28.875
2018-05-25T12:32:03.809Z,29.062
2018-05-25T12:33:03.998Z,29.062
2018-05-25T12:34:03.844Z,29.125
2018-05-25T12:35:03.393Z,29
2018-05-25T12:36:03.873Z,29
2018-05-25T12:37:04.270Z,29
2018-05-25T12:38:08.557Z,29.062
2018-05-25T12:39:03.590Z,29.062
2018-05-25T12:40:04.087Z,29.062